createdAt,value
2018-06-17T00:01:40.109Z,16.38
2018-06-17T00:04:06.404Z,16.29
2018-06-17T00:06:32.698Z,16.25
2018-06-17T00:08:58.993Z,16.09
2018-06-17T00:11:25.320Z,16.14
2018-06-17T00:13:51.618Z,16.20
2018-06-17T00:16:17.911Z,16.35
2018-06-17T00:18:44.213Z,16.32
2018-06-17T00:21:10.511Z,16.17
2018-06-17T00:23:36.844Z,16.11
2018-06-17T00:26:03.138Z,16.18
2018-06-17T00:28:29.440Z,15.98
2018-06-17T00:30:55.740Z,16.19
2018-06-17T00:33:22.046Z,16.36
2018-06-17T00:35:48.375Z,16.44
2018-06-17T00:38:14.679Z,16.33
2018-06-17T00:40:40.971Z,16.51
2018-06-17T00:43:07.272Z,16.06
2018-06-17T00:45:33.567Z,15.49
2018-06-17T00:47:59.897Z,15.41
2018-06-17T00:50:26.192Z,15.36
2018-06-17T00:52:52.492Z,15.65
2018-06-17T00:55:18.795Z,15.88
2018-06-17T00:57:45.084Z,15.73
2018-06-17T01:00:11.420Z,15.44
2018-06-17T01:02:37.710Z,15.37
2018-06-17T01:05:04.008Z,15.75
2018-06-17T01:07:30.311Z,15.70
2018-06-17T01:09:56.601Z,15.60
2018-06-17T01:12:22.928Z,15.89
2018-06-17T01:14:49.223Z,15.83
2018-06-17T01:17:15.512Z,15.37
2018-06-17T01:19:41.810Z,15.31
2018-06-17T01:22:08.102Z,15.35
2018-06-17T01:24:34.431Z,15.78
2018-06-17T01:27:00.716Z,15.99
2018-06-17T01:29:27.014Z,15.81
2018-06-17T01:31:53.313Z,15.81
2018-06-17T01:34:19.605Z,15.86
2018-06-17T01:36:45.949Z,15.63
2018-06-17T01:39:12.244Z,15.36
2018-06-17T01:41:38.537Z,15.43
2018-06-17T01:44:04.865Z,15.62
2018-06-17T01:46:31.162Z,15.55
2018-06-17T01:48:57.464Z,15.76
2018-06-17T01:51:23.806Z,15.49
2018-06-17T01:53:50.100Z,15.44
2018-06-17T01:56:16.391Z,15.74
2018-06-17T01:58:42.688Z,15.52
2018-06-17T02:01:08.983Z,15.41
2018-06-17T02:03:35.304Z,15.47
2018-06-17T02:06:01.596Z,15.19
2018-06-17T02:08:27.889Z,15.10
2018-06-17T02:10:54.189Z,15.34
2018-06-17T02:13:20.482Z,15.55
2018-06-17T02:15:46.808Z,15.14
2018-06-17T02:18:13.100Z,14.84
2018-06-17T02:20:39.397Z,14.87
2018-06-17T02:23:05.699Z,14.80
2018-06-17T02:25:31.995Z,14.85
2018-06-17T02:27:58.339Z,14.84
2018-06-17T02:30:24.641Z,14.70
2018-06-17T02:32:50.935Z,14.60
2018-06-17T02:35:17.262Z,14.54
2018-06-17T02:37:43.572Z,14.68
2018-06-17T02:40:09.865Z,14.97
2018-06-17T02:42:36.162Z,14.78
2018-06-17T02:45:02.457Z,14.75
2018-06-17T02:47:28.787Z,14.73
2018-06-17T02:49:55.076Z,14.84
2018-06-17T02:52:21.375Z,14.70
2018-06-17T02:54:47.666Z,14.33
2018-06-17T02:57:13.954Z,14.09
2018-06-17T02:59:40.276Z,14.01
2018-06-17T03:02:06.568Z,13.95
2018-06-17T03:04:32.862Z,13.93
2018-06-17T03:06:59.158Z,14.06
2018-06-17T03:09:25.455Z,14.65
2018-06-17T03:11:51.801Z,14.87
2018-06-17T03:14:18.095Z,14.92
2018-06-17T03:16:44.386Z,14.83
2018-06-17T03:19:10.683Z,14.65
2018-06-17T03:21:36.985Z,14.70
2018-06-17T03:24:03.318Z,14.91
2018-06-17T03:26:29.611Z,14.90
2018-06-17T03:28:55.906Z,14.65
2018-06-17T03:31:22.205Z,14.67
2018-06-17T03:33:48.501Z,14.94
2018-06-17T03:36:14.820Z,14.89
2018-06-17T03:38:41.118Z,14.75
2018-06-17T03:41:07.414Z,14.61
2018-06-17T03:43:33.720Z,14.54
2018-06-17T03:46:00.019Z,14.43
2018-06-17T03:48:26.354Z,14.33
2018-06-17T03:50:52.646Z,14.39
2018-06-17T03:53:18.948Z,14.65
2018-06-17T03:55:45.246Z,14.79
2018-06-17T03:58:11.544Z,14.93
2018-06-17T04:00:37.877Z,15.21
2018-06-17T04:03:04.177Z,15.28
2018-06-17T04:05:30.470Z,15.49
2018-06-17T04:07:56.766Z,15.78
2018-06-17T04:10:23.072Z,15.46
2018-06-17T04:12:49.387Z,15.28
2018-06-17T04:15:15.688Z,15.48
2018-06-17T04:17:41.990Z,15.70
2018-06-17T04:20:08.289Z,15.79
2018-06-17T04:22:34.583Z,15.55
2018-06-17T04:25:00.908Z,15.36
2018-06-17T04:27:27.201Z,15.65
2018-06-17T04:29:53.494Z,15.95
2018-06-17T04:32:19.822Z,15.84
2018-06-17T04:34:46.111Z,15.63
2018-06-17T04:37:12.402Z,15.75
2018-06-17T04:39:38.700Z,15.90
2018-06-17T04:42:04.995Z,15.84
2018-06-17T04:44:31.326Z,15.66
2018-06-17T04:46:57.624Z,15.90
2018-06-17T04:49:23.919Z,16.01
2018-06-17T04:51:50.210Z,16.29
2018-06-17T04:54:16.501Z,16.36
2018-06-17T04:56:42.825Z,16.42
2018-06-17T04:59:09.116Z,16.59
2018-06-17T05:01:35.411Z,16.87
2018-06-17T05:04:01.720Z,17.13
2018-06-17T05:06:28.008Z,17.30
2018-06-17T05:08:54.323Z,17.30
2018-06-17T05:11:20.607Z,17.20
2018-06-17T05:13:46.895Z,16.89
2018-06-17T05:16:13.191Z,16.87
2018-06-17T05:18:39.520Z,17.05
2018-06-17T05:21:05.851Z,17.26
2018-06-17T05:23:32.144Z,17.38
2018-06-17T05:25:58.429Z,17.83
2018-06-17T05:28:24.757Z,17.71
2018-06-17T05:30:51.048Z,17.45
2018-06-17T05:33:17.335Z,16.97
2018-06-17T05:35:43.655Z,16.54
2018-06-17T05:38:09.949Z,16.74
2018-06-17T05:40:36.235Z,16.88
2018-06-17T05:43:02.569Z,17.06
2018-06-17T05:45:28.861Z,16.81
2018-06-17T05:47:55.167Z,16.82
2018-06-17T05:50:21.489Z,16.76
2018-06-17T05:52:47.787Z,16.75
2018-06-17T05:55:14.075Z,16.73
2018-06-17T05:57:40.411Z,16.91
2018-06-17T06:00:06.710Z,17.12
2018-06-17T06:02:33.018Z,18.86
2018-06-17T06:04:59.340Z,18.68
2018-06-17T06:07:25.657Z,19.00
2018-06-17T06:09:51.955Z,19.16
2018-06-17T06:12:18.273Z,19.24
2018-06-17T06:14:44.572Z,18.72
2018-06-17T06:17:10.869Z,18.24
2018-06-17T06:19:37.188Z,18.38
2018-06-17T06:22:03.481Z,18.70
2018-06-17T06:24:29.771Z,20.75
2018-06-17T06:26:56.099Z,21.62
2018-06-17T06:29:22.388Z,22.47
2018-06-17T06:31:48.681Z,23.67
2018-06-17T06:34:15.002Z,23.83
2018-06-17T06:36:41.299Z,23.73
2018-06-17T06:39:07.595Z,24.01
2018-06-17T06:41:33.938Z,23.17
2018-06-17T06:44:00.229Z,22.96
2018-06-17T06:46:26.525Z,22.75
2018-06-17T06:48:52.814Z,24.19
2018-06-17T06:51:19.109Z,24.98
2018-06-17T06:53:45.402Z,25.41
2018-06-17T06:56:11.700Z,25.43
2018-06-17T06:58:37.989Z,25.35
2018-06-17T07:01:04.276Z,25.42
2018-06-17T07:03:30.609Z,26.27
2018-06-17T07:05:56.905Z,25.62
2018-06-17T07:08:23.194Z,24.81
2018-06-17T07:10:49.512Z,25.29
2018-06-17T07:13:15.801Z,25.37
2018-06-17T07:15:42.094Z,23.61
2018-06-17T07:18:08.389Z,22.34
2018-06-17T07:20:34.681Z,22.33
2018-06-17T07:23:00.972Z,21.92
2018-06-17T07:25:27.265Z,23.84
2018-06-17T07:27:53.553Z,24.44
2018-06-17T07:30:19.839Z,25.49
2018-06-17T07:32:46.172Z,25.87
2018-06-17T07:35:12.481Z,26.07
2018-06-17T07:37:38.766Z,26.06
2018-06-17T07:40:05.059Z,25.90
2018-06-17T07:42:31.347Z,25.41
2018-06-17T07:44:57.651Z,24.91
2018-06-17T07:47:23.972Z,25.02
2018-06-17T07:49:50.261Z,25.62
2018-06-17T07:52:16.563Z,25.83
2018-06-17T07:54:42.879Z,25.91
2018-06-17T07:57:09.171Z,26.84
2018-06-17T07:59:35.497Z,26.86
2018-06-17T08:02:01.790Z,26.82
2018-06-17T08:04:28.079Z,27.30
2018-06-17T08:06:54.369Z,27.36
2018-06-17T08:09:20.660Z,27.90
2018-06-17T08:11:46.958Z,28.41
2018-06-17T08:14:13.290Z,27.85
2018-06-17T08:16:39.576Z,28.26
2018-06-17T08:19:05.870Z,28.00
2018-06-17T08:21:32.211Z,27.23
2018-06-17T08:23:58.499Z,27.83
2018-06-17T08:26:24.792Z,27.34
2018-06-17T08:28:51.095Z,27.77
2018-06-17T08:31:17.392Z,28.21
2018-06-17T08:33:43.729Z,29.03
2018-06-17T08:36:10.021Z,28.81
2018-06-17T08:38:36.310Z,28.47
2018-06-17T08:41:02.596Z,28.58
2018-06-17T08:43:28.882Z,28.89
2018-06-17T08:45:55.205Z,28.99
2018-06-17T08:48:21.502Z,28.99
2018-06-17T08:50:47.828Z,29.26
2018-06-17T08:53:14.083Z,28.62
2018-06-17T08:55:40.384Z,28.49
2018-06-17T08:58:06.707Z,29.21
2018-06-17T09:00:33.012Z,28.82
2018-06-17T09:02:59.300Z,28.37
2018-06-17T09:05:25.601Z,27.89
2018-06-17T09:07:51.902Z,28.06
2018-06-17T09:10:18.227Z,28.19
2018-06-17T09:12:44.517Z,28.78
2018-06-17T09:15:10.810Z,28.82
2018-06-17T09:17:37.158Z,29.07
2018-06-17T09:20:03.453Z,29.14
2018-06-17T09:22:29.744Z,29.11
2018-06-17T09:24:56.069Z,28.91
2018-06-17T09:27:22.363Z,28.88
2018-06-17T09:29:48.659Z,28.34
2018-06-17T09:32:15.003Z,28.52
2018-06-17T09:34:41.255Z,29.07
2018-06-17T09:37:07.582Z,28.93
2018-06-17T09:39:33.873Z,29.30
2018-06-17T09:42:00.184Z,29.18
2018-06-17T09:44:26.512Z,29.71
2018-06-17T09:46:52.792Z,29.77
2018-06-17T09:49:19.118Z,30.04
2018-06-17T09:51:45.415Z,30.45
2018-06-17T09:54:11.705Z,30.36
2018-06-17T09:56:37.995Z,30.55
2018-06-17T09:59:04.294Z,28.42
2018-06-17T10:01:30.591Z,29.11
2018-06-17T10:03:56.885Z,29.94
2018-06-17T10:06:23.216Z,31.15
2018-06-17T10:08:49.526Z,32.31
2018-06-17T10:11:15.821Z,32.76
2018-06-17T10:13:42.160Z,30.61
2018-06-17T10:16:08.450Z,28.37
2018-06-17T10:18:34.741Z,27.09
2018-06-17T10:21:01.060Z,27.16
2018-06-17T10:23:27.362Z,29.18
2018-06-17T10:25:53.655Z,30.52
2018-06-17T10:28:20.001Z,31.41
2018-06-17T10:30:46.297Z,30.42
2018-06-17T10:35:38.942Z,27.34
2018-06-17T10:38:05.237Z,26.81
2018-06-17T10:40:31.530Z,26.61
2018-06-17T10:42:57.856Z,26.53
2018-06-17T10:45:24.148Z,26.72
2018-06-17T10:47:50.434Z,26.72
2018-06-17T10:50:16.730Z,26.77
2018-06-17T10:52:43.020Z,28.58
2018-06-17T10:55:09.342Z,30.07
2018-06-17T10:57:35.635Z,30.42
2018-06-17T11:00:01.925Z,30.78
2018-06-17T11:02:28.220Z,31.13
2018-06-17T11:04:54.512Z,31.08
2018-06-17T11:07:23.102Z,30.75
2018-06-17T11:09:49.443Z,30.30
2018-06-17T11:12:15.735Z,30.36
2018-06-17T11:14:42.038Z,30.51
2018-06-17T11:17:10.560Z,30.12
2018-06-17T11:19:36.925Z,30.11
2018-06-17T11:22:03.168Z,30.39
2018-06-17T11:24:29.454Z,30.49
2018-06-17T11:26:55.780Z,29.70
2018-06-17T11:29:22.072Z,28.71
2018-06-17T11:31:48.381Z,29.25
2018-06-17T11:34:14.673Z,29.38
2018-06-17T11:36:40.959Z,29.04
2018-06-17T11:39:07.313Z,28.83
2018-06-17T11:41:33.647Z,29.11
2018-06-17T11:44:00.003Z,29.08
2018-06-17T11:46:26.323Z,28.09
2018-06-17T11:48:52.610Z,27.80
2018-06-17T11:51:19.146Z,27.60
2018-06-17T11:53:45.615Z,27.47
2018-06-17T11:56:11.902Z,27.28
2018-06-17T11:58:38.217Z,27.08
2018-06-17T12:01:04.549Z,27.03
2018-06-17T12:03:30.862Z,27.16
2018-06-17T12:05:57.148Z,27.00
2018-06-17T12:08:23.482Z,26.96
2018-06-17T12:10:49.780Z,26.46
2018-06-17T12:13:16.086Z,26.17
2018-06-17T12:15:42.418Z,25.98
2018-06-17T12:18:08.708Z,25.63
2018-06-17T12:20:35.005Z,25.52
2018-06-17T12:23:01.325Z,25.26
2018-06-17T12:25:27.716Z,25.51
2018-06-17T12:27:53.957Z,25.20
2018-06-17T12:30:20.281Z,24.96
2018-06-17T12:32:46.577Z,24.86
2018-06-17T12:35:13.161Z,24.80
2018-06-17T12:37:39.511Z,24.61
2018-06-17T12:40:05.795Z,24.35
2018-06-17T12:42:32.084Z,24.32
2018-06-17T12:44:58.457Z,24.58
2018-06-17T12:47:24.755Z,24.98
2018-06-17T12:49:51.055Z,25.21
2018-06-17T12:52:17.348Z,25.21
2018-06-17T12:54:43.634Z,25.31
2018-06-17T12:57:10.010Z,25.41
2018-06-17T12:59:36.320Z,25.32
2018-06-17T13:02:02.666Z,25.27
2018-06-17T13:04:28.913Z,25.31
2018-06-17T13:06:55.344Z,25.46
2018-06-17T13:09:22.278Z,25.45
2018-06-17T13:11:48.576Z,25.44
2018-06-17T13:14:14.884Z,25.20
2018-06-17T13:16:41.218Z,24.74
2018-06-17T13:19:07.535Z,24.47
2018-06-17T13:21:34.874Z,24.42
2018-06-17T13:24:01.163Z,24.43
2018-06-17T13:26:27.459Z,24.30
2018-06-17T13:28:53.807Z,24.09
2018-06-17T13:31:20.170Z,23.75
2018-06-17T13:33:46.461Z,23.51
2018-06-17T13:36:12.793Z,23.40
2018-06-17T13:38:39.082Z,23.45
2018-06-17T13:41:05.374Z,23.33
2018-06-17T13:43:31.716Z,23.14
2018-06-17T13:45:58.005Z,22.92
2018-06-17T13:48:24.290Z,22.91
2018-06-17T13:50:50.588Z,22.89
2018-06-17T13:53:16.917Z,22.68
2018-06-17T13:55:43.208Z,22.57
2018-06-17T13:58:09.515Z,22.48
2018-06-17T14:00:35.799Z,22.40
2018-06-17T14:03:02.347Z,22.52
2018-06-17T14:05:28.668Z,22.56
2018-06-17T14:07:54.958Z,22.56
2018-06-17T14:10:21.247Z,22.66
2018-06-17T14:12:47.539Z,22.83
2018-06-17T14:15:13.826Z,23.12
2018-06-17T14:17:40.160Z,23.23
2018-06-17T14:20:06.461Z,23.15
2018-06-17T14:22:32.747Z,23.07
2018-06-17T14:24:59.062Z,23.09
2018-06-17T14:27:25.359Z,23.10
2018-06-17T14:29:51.646Z,23.14
2018-06-17T14:32:17.967Z,22.99
2018-06-17T14:34:44.260Z,22.97
2018-06-17T14:37:10.547Z,23.04
2018-06-17T14:39:36.866Z,23.16
2018-06-17T14:42:03.166Z,23.29
2018-06-17T14:44:29.456Z,23.42
2018-06-17T14:46:58.066Z,23.55
2018-06-17T14:49:24.359Z,23.56
2018-06-17T14:51:50.608Z,23.70
2018-06-17T14:54:16.928Z,23.56
2018-06-17T14:56:43.222Z,23.39
2018-06-17T14:59:09.508Z,23.37
2018-06-17T15:01:35.847Z,23.42
2018-06-17T15:04:02.135Z,23.26
2018-06-17T15:06:28.428Z,23.14
2018-06-17T15:08:54.758Z,23.13
2018-06-17T15:11:21.033Z,23.13
2018-06-17T15:13:47.321Z,22.93
2018-06-17T15:16:13.647Z,23.03
2018-06-17T15:18:39.939Z,23.06
2018-06-17T15:21:06.232Z,22.99
2018-06-17T15:23:32.525Z,22.93
2018-06-17T15:25:58.826Z,22.98
2018-06-17T15:28:25.199Z,22.90
2018-06-17T15:30:51.501Z,22.93
2018-06-17T15:33:17.796Z,22.95
2018-06-17T15:35:44.117Z,22.94
2018-06-17T15:38:10.417Z,22.93
2018-06-17T15:40:36.754Z,22.95
2018-06-17T15:43:03.060Z,22.89
2018-06-17T15:45:29.392Z,22.57
2018-06-17T15:47:55.719Z,22.35
2018-06-17T15:50:22.016Z,22.14
2018-06-17T15:52:48.299Z,21.93
2018-06-17T15:55:14.615Z,21.79
2018-06-17T15:57:40.888Z,21.45
2018-06-17T16:00:07.215Z,21.29
2018-06-17T16:02:33.521Z,21.24
2018-06-17T16:04:59.845Z,21.07
2018-06-17T16:07:26.141Z,21.07
2018-06-17T16:09:52.427Z,20.84
2018-06-17T16:12:18.787Z,20.55
2018-06-17T16:14:45.112Z,20.17
2018-06-17T16:17:11.416Z,19.86
2018-06-17T16:19:37.780Z,19.60
2018-06-17T16:22:04.068Z,19.25
2018-06-17T16:24:30.358Z,18.83
2018-06-17T16:26:56.659Z,18.71
2018-06-17T16:29:22.983Z,18.66
2018-06-17T16:31:49.293Z,18.65
2018-06-17T16:34:15.586Z,18.38
2018-06-17T16:36:41.882Z,18.32
2018-06-17T16:39:08.282Z,18.33
2018-06-17T16:41:34.574Z,18.34
2018-06-17T16:44:00.864Z,18.30
2018-06-17T16:46:27.167Z,18.38
2018-06-17T16:48:53.507Z,18.65
2018-06-17T16:51:19.841Z,18.61
2018-06-17T16:53:46.215Z,18.44
2018-06-17T16:56:12.504Z,18.22
2018-06-17T16:58:38.830Z,17.96
2018-06-17T17:01:05.252Z,18.01
2018-06-17T17:03:31.613Z,18.15
2018-06-17T17:05:58.522Z,18.03
2018-06-17T17:08:24.823Z,18.14
2018-06-17T17:10:51.152Z,18.30
2018-06-17T17:13:17.490Z,18.37
2018-06-17T17:15:43.788Z,18.35
2018-06-17T17:18:10.074Z,18.12
2018-06-17T17:20:36.394Z,18.18
2018-06-17T17:23:02.693Z,18.39
2018-06-17T17:25:28.985Z,18.40
2018-06-17T17:27:55.316Z,18.29
2018-06-17T17:30:21.609Z,18.10
2018-06-17T17:32:47.944Z,18.14
2018-06-17T17:35:14.259Z,18.11
2018-06-17T17:37:40.570Z,18.17
2018-06-17T17:40:06.871Z,18.05
2018-06-17T17:42:33.168Z,17.98
2018-06-17T17:44:59.509Z,18.02
2018-06-17T17:47:25.812Z,18.11
2018-06-17T17:49:52.106Z,18.22
2018-06-17T17:52:18.404Z,18.37
2018-06-17T17:54:44.694Z,18.44
2018-06-17T17:57:10.990Z,18.39
2018-06-17T17:59:37.284Z,18.42
2018-06-17T18:02:03.612Z,18.45
2018-06-17T18:04:29.911Z,18.43
2018-06-17T18:06:56.206Z,18.43
2018-06-17T18:09:22.533Z,18.32
2018-06-17T18:11:48.824Z,18.29
2018-06-17T18:14:15.113Z,18.14
2018-06-17T18:16:41.436Z,18.08
2018-06-17T18:19:07.729Z,18.08
2018-06-17T18:21:34.021Z,18.14
2018-06-17T18:24:00.323Z,18.16
2018-06-17T18:26:26.610Z,18.08
2018-06-17T18:28:52.937Z,18.11
2018-06-17T18:31:19.230Z,18.17
2018-06-17T18:33:45.525Z,18.11
2018-06-17T18:36:12.089Z,18.16
2018-06-17T18:38:38.320Z,18.31
2018-06-17T18:41:04.640Z,18.17
2018-06-17T18:43:30.940Z,18.19
2018-06-17T18:45:57.230Z,18.06
2018-06-17T18:48:23.524Z,17.96
2018-06-17T18:50:49.822Z,18.08
2018-06-17T18:53:16.146Z,18.26
2018-06-17T18:55:42.437Z,18.29
2018-06-17T18:58:08.729Z,18.18
2018-06-17T19:00:35.032Z,18.33
2018-06-17T19:03:01.320Z,18.49
2018-06-17T19:05:27.644Z,18.38
2018-06-17T19:07:53.933Z,18.29
2018-06-17T19:10:20.227Z,18.25
2018-06-17T19:12:46.571Z,18.22
2018-06-17T19:15:12.879Z,18.08
2018-06-17T19:17:39.180Z,18.09
2018-06-17T19:20:05.506Z,18.15
2018-06-17T19:22:31.809Z,18.15
2018-06-17T19:24:58.987Z,18.18
2018-06-17T19:27:25.526Z,18.18
2018-06-17T19:29:51.812Z,18.24
2018-06-17T19:32:18.105Z,18.23
2018-06-17T19:34:44.392Z,18.15
2018-06-17T19:37:10.736Z,18.22
2018-06-17T19:39:37.027Z,18.23
2018-06-17T19:42:03.321Z,18.24
2018-06-17T19:44:29.642Z,18.15
2018-06-17T19:46:55.957Z,18.03
2018-06-17T19:49:22.315Z,17.94
2018-06-17T19:51:48.545Z,17.92
2018-06-17T19:54:14.839Z,17.84
2018-06-17T19:56:41.174Z,17.83
2018-06-17T19:59:07.466Z,17.66
2018-06-17T20:01:33.761Z,17.66
2018-06-17T20:04:00.101Z,17.72
2018-06-17T20:06:26.572Z,17.75
2018-06-17T20:08:52.713Z,17.85
2018-06-17T20:11:19.010Z,17.83
2018-06-17T20:13:45.361Z,17.74
2018-06-17T20:16:11.646Z,17.67
2018-06-17T20:18:37.948Z,17.60
2018-06-17T20:21:04.241Z,17.60
2018-06-17T20:23:30.545Z,17.60
2018-06-17T20:25:56.851Z,17.69
2018-06-17T20:28:23.183Z,17.71
2018-06-17T20:30:49.479Z,17.67
2018-06-17T20:33:15.786Z,17.71
2018-06-17T20:35:42.142Z,17.71
2018-06-17T20:38:08.405Z,17.75
2018-06-17T20:40:34.700Z,17.77
2018-06-17T20:43:01.022Z,17.73
2018-06-17T20:45:27.317Z,17.68
2018-06-17T20:47:53.661Z,17.65
2018-06-17T20:50:19.928Z,17.61
2018-06-17T20:52:46.226Z,17.58
2018-06-17T20:55:12.568Z,17.56
2018-06-17T20:57:38.903Z,17.53
2018-06-17T21:00:05.203Z,17.55
2018-06-17T21:02:31.505Z,17.62
2018-06-17T21:04:57.809Z,17.68
2018-06-17T21:07:24.109Z,17.68
2018-06-17T21:09:50.453Z,17.62
2018-06-17T21:12:16.750Z,17.71
2018-06-17T21:14:43.047Z,17.70
2018-06-17T21:17:09.343Z,17.68
2018-06-17T21:19:35.637Z,17.56
2018-06-17T21:22:01.956Z,17.51
2018-06-17T21:24:28.288Z,17.58
2018-06-17T21:26:54.604Z,17.59
2018-06-17T21:29:20.913Z,17.54
2018-06-17T21:31:47.218Z,17.48
2018-06-17T21:34:13.605Z,17.42
2018-06-17T21:36:39.920Z,17.44
2018-06-17T21:39:06.206Z,17.38
2018-06-17T21:41:32.512Z,17.42
2018-06-17T21:43:58.806Z,17.45
2018-06-17T21:46:25.147Z,17.29
2018-06-17T21:48:51.446Z,17.19
2018-06-17T21:51:17.739Z,17.15
2018-06-17T21:53:44.033Z,17.12
2018-06-17T21:56:10.325Z,17.18
2018-06-17T21:58:36.647Z,17.14
2018-06-17T22:01:02.938Z,17.18
2018-06-17T22:03:29.233Z,17.20
2018-06-17T22:05:55.529Z,17.15
2018-06-17T22:08:21.817Z,17.12
2018-06-17T22:10:48.138Z,17.19
2018-06-17T22:13:14.440Z,17.10
2018-06-17T22:15:40.742Z,17.09
2018-06-17T22:18:07.028Z,16.98
2018-06-17T22:20:33.329Z,16.84
2018-06-17T22:22:59.647Z,16.81
2018-06-17T22:25:25.945Z,16.78
2018-06-17T22:27:52.233Z,16.84
2018-06-17T22:30:18.552Z,17.01
2018-06-17T22:32:44.866Z,17.00
2018-06-17T22:35:11.167Z,16.86
2018-06-17T22:37:37.464Z,16.69
2018-06-17T22:40:03.760Z,16.74
2018-06-17T22:42:30.098Z,16.76
2018-06-17T22:44:56.376Z,16.74
2018-06-17T22:47:22.669Z,16.74
2018-06-17T22:49:48.967Z,16.78
2018-06-17T22:52:15.261Z,16.69
2018-06-17T22:54:41.586Z,16.72
2018-06-17T22:57:07.883Z,16.75
2018-06-17T22:59:34.168Z,16.72
2018-06-17T23:02:00.488Z,16.77
2018-06-17T23:04:26.781Z,16.76
2018-06-17T23:06:53.074Z,16.71
2018-06-17T23:09:19.405Z,16.63
2018-06-17T23:11:45.699Z,16.56
2018-06-17T23:14:11.991Z,16.54
2018-06-17T23:16:38.288Z,16.54
2018-06-17T23:19:04.578Z,16.56
2018-06-17T23:21:30.900Z,16.56
2018-06-17T23:23:57.188Z,16.51
2018-06-17T23:26:23.480Z,16.43
2018-06-17T23:28:49.804Z,16.47
2018-06-17T23:31:16.094Z,16.38
2018-06-17T23:33:42.386Z,16.37
2018-06-17T23:36:08.681Z,16.53
2018-06-17T23:38:34.974Z,16.56
2018-06-17T23:41:01.312Z,16.58
2018-06-17T23:43:27.610Z,16.50
2018-06-17T23:45:53.916Z,16.46
2018-06-17T23:48:20.230Z,16.39
2018-06-17T23:50:46.521Z,16.37
2018-06-17T23:53:12.817Z,16.40
2018-06-17T23:55:39.113Z,16.42
2018-06-17T23:58:05.406Z,16.39
